Avondale, CO

10:36 PM MDT on August 30, 2016 (GMT -0600)
Pueblo Memorial | | Change Station

Elev 4721 ft 38.29 °N, 104.50 °W | Updated 43 minutes ago

Partly Cloudy
Partly Cloudy
67 °F
Feels Like 67 °F
N
6
Wind Variable Wind from WNW

Today
High -- | Low -- °F
--% Chance of Precip.
Yesterday
High -- | Low -- °F
Precip. -- in
Pressure 30.12 in
Visibility 10.0 miles
Clouds Few 12000 ft
Dew Point 56 °F
Humidity 68%
Rainfall 0.00 in
Snow Depth Not available.
6:26 AM 7:29 PM
Waning Crescent, 1% visible
METAR KPUB 310353Z AUTO 29005KT 10SM FEW120 19/13 A3029 RMK AO2 LTG DSNT NW SLP199 T01940133
Pressure 30.12 in
Visibility 10.0 miles
Clouds Few 12000 ft
Dew Point 56 °F
Humidity 68%
Rainfall 0.00 in
Snow Depth Not available.
6:26 AM 7:29 PM
Waning Crescent, 1% visible
METAR KPUB 310353Z AUTO 29005KT 10SM FEW120 19/13 A3029 RMK AO2 LTG DSNT NW SLP199 T01940133

10-Day Weather Forecast

Almanac

Astronomy

Aug. 30, 2016 Rise Set
Actual Time
Civil Twilight
Nautical Twilight
Astronomical Twilight
Moon
Length of Visible Light
Length of Day
Tomorrow will be .
, % of the Moon is Illuminated

Today's Extremes

State Highs State Lows

Community

WunderPhotos

Upload Photos

1,936,035 photos uploaded!

WunderBlog® & News

Nearby

Air Quality

  Air Quality AQ Index Pollutant
Not available.

Snow Depth

Station Depth Elevation

Earthquake Activity

City Distance Mag. Time & Date
Minimum magnitude displayed is 2.5.

Coastal Water Temperatures

Place Temperature

Stations

Nearby Weather Stations

Station Location Temp. Windchill Dew Point Humidity Wind Precip. Elev Updated Type
                   

Watches & Warnings

There are currently no watches in effect.